createdAt,value
2017-12-03T00:00:29.721Z,1018.49
2017-12-03T00:01:29.719Z,1018.44
2017-12-03T00:02:29.718Z,1018.45
2017-12-03T00:03:29.722Z,1018.40
2017-12-03T00:04:29.730Z,1018.36
2017-12-03T00:05:29.735Z,1018.41
2017-12-03T00:06:29.737Z,1018.33
2017-12-03T00:07:29.740Z,1018.40
2017-12-03T00:08:29.759Z,1018.40
2017-12-03T00:09:29.760Z,1018.35
2017-12-03T00:10:29.742Z,1018.33
2017-12-03T00:11:29.749Z,1018.28
2017-12-03T00:12:29.759Z,1018.35
2017-12-03T00:13:29.755Z,1018.28
2017-12-03T00:14:29.761Z,1018.26
2017-12-03T00:15:29.767Z,1018.33
2017-12-03T00:16:29.770Z,1018.27
2017-12-03T00:17:29.802Z,1018.26
2017-12-03T00:18:29.781Z,1018.29
2017-12-03T00:19:29.786Z,1018.25
2017-12-03T00:20:29.784Z,1018.17
2017-12-03T00:21:29.799Z,1018.23
2017-12-03T00:22:29.875Z,1018.22
2017-12-03T00:23:29.796Z,1018.22
2017-12-03T00:24:29.807Z,1018.21
2017-12-03T00:25:29.815Z,1018.23
2017-12-03T00:26:29.813Z,1018.27
2017-12-03T00:27:29.811Z,1018.30
2017-12-03T00:28:29.817Z,1018.26
2017-12-03T00:29:29.823Z,1018.27
2017-12-03T00:30:29.826Z,1018.23
2017-12-03T00:31:29.827Z,1018.22
2017-12-03T00:32:29.830Z,1018.21
2017-12-03T00:33:29.834Z,1018.23
2017-12-03T00:34:29.845Z,1018.20
2017-12-03T00:35:29.853Z,1018.20
2017-12-03T00:36:29.844Z,1018.15
2017-12-03T00:37:29.847Z,1018.15
2017-12-03T00:38:29.856Z,1018.10
2017-12-03T00:39:29.861Z,1018.07
2017-12-03T00:40:29.872Z,1018.09
2017-12-03T00:41:29.862Z,1018.10
2017-12-03T00:42:29.871Z,1018.09
2017-12-03T00:43:29.868Z,1017.99
2017-12-03T00:44:29.875Z,1018.02
2017-12-03T00:45:29.882Z,1017.95
2017-12-03T00:46:29.885Z,1017.98
2017-12-03T00:47:29.890Z,1017.97
2017-12-03T00:48:29.893Z,1017.98
2017-12-03T00:49:29.904Z,1018.02
2017-12-03T00:50:29.917Z,1018.00
2017-12-03T00:51:29.907Z,1017.97
2017-12-03T00:52:29.908Z,1018.07
2017-12-03T00:53:29.910Z,1018.02
2017-12-03T00:54:29.917Z,1018.03
2017-12-03T00:55:29.916Z,1018.04
2017-12-03T00:56:29.927Z,1018.06
2017-12-03T00:57:29.934Z,1017.99
2017-12-03T00:58:29.937Z,1018.03
2017-12-03T00:59:29.930Z,1017.97
2017-12-03T01:00:29.936Z,1017.98
2017-12-03T01:01:29.946Z,1017.97
2017-12-03T01:02:29.945Z,1017.96
2017-12-03T01:03:29.942Z,1017.94
2017-12-03T01:04:29.957Z,1017.90
2017-12-03T01:05:29.956Z,1017.93
2017-12-03T01:06:29.962Z,1017.93
2017-12-03T01:07:29.959Z,1017.89
2017-12-03T01:08:29.962Z,1017.79
2017-12-03T01:09:29.965Z,1017.88
2017-12-03T01:10:29.975Z,1017.86
2017-12-03T01:11:29.978Z,1017.94
2017-12-03T01:12:29.984Z,1017.89
2017-12-03T01:13:29.986Z,1017.88
2017-12-03T01:14:29.999Z,1017.88
2017-12-03T01:15:29.988Z,1017.84
2017-12-03T01:16:30.769Z,1017.81
2017-12-03T01:17:30.005Z,1017.80
2017-12-03T01:18:30.003Z,1017.86
2017-12-03T01:19:30.014Z,1017.88
2017-12-03T01:20:30.007Z,1017.85
2017-12-03T01:21:30.009Z,1017.82
2017-12-03T01:22:30.023Z,1017.85
2017-12-03T01:23:30.019Z,1017.80
2017-12-03T01:24:30.021Z,1017.77
2017-12-03T01:25:30.031Z,1017.77
2017-12-03T01:26:30.033Z,1017.80
2017-12-03T01:27:30.036Z,1017.73
2017-12-03T01:28:30.038Z,1017.74
2017-12-03T01:29:30.039Z,1017.78
2017-12-03T01:30:30.052Z,1017.80
2017-12-03T01:31:30.048Z,1017.81
2017-12-03T01:32:30.060Z,1017.77
2017-12-03T01:33:30.055Z,1017.75
2017-12-03T01:34:30.072Z,1017.74
2017-12-03T01:35:30.064Z,1017.74
2017-12-03T01:36:30.076Z,1017.72
2017-12-03T01:37:30.074Z,1017.73
2017-12-03T01:38:30.074Z,1017.69
2017-12-03T01:39:30.077Z,1017.63
2017-12-03T01:40:30.084Z,1017.61
2017-12-03T01:41:30.085Z,1017.72
2017-12-03T01:42:30.098Z,1017.66
2017-12-03T01:43:30.098Z,1017.62
2017-12-03T01:44:30.106Z,1017.62
2017-12-03T01:45:30.101Z,1017.63
2017-12-03T01:46:30.103Z,1017.66
2017-12-03T01:47:30.107Z,1017.60
2017-12-03T01:48:30.111Z,1017.63
2017-12-03T01:49:30.109Z,1017.62
2017-12-03T01:50:30.122Z,1017.63
2017-12-03T01:51:30.117Z,1017.62
2017-12-03T01:52:30.129Z,1017.57
2017-12-03T01:53:30.129Z,1017.57
2017-12-03T01:54:30.131Z,1017.61
2017-12-03T01:55:30.142Z,1017.59
2017-12-03T01:56:30.140Z,1017.59
2017-12-03T01:57:30.169Z,1017.58
2017-12-03T01:58:30.149Z,1017.63
2017-12-03T01:59:30.149Z,1017.63
2017-12-03T02:00:30.158Z,1017.66
2017-12-03T02:01:30.157Z,1017.68
2017-12-03T02:02:30.159Z,1017.67
2017-12-03T02:03:30.161Z,1017.61
2017-12-03T02:04:30.260Z,1017.59
2017-12-03T02:05:30.166Z,1017.52
2017-12-03T02:06:30.174Z,1017.56
2017-12-03T02:07:30.171Z,1017.58
2017-12-03T02:08:30.183Z,1017.60
2017-12-03T02:09:30.185Z,1017.59
2017-12-03T02:10:30.238Z,1017.55
2017-12-03T02:11:30.205Z,1017.56
2017-12-03T02:12:30.203Z,1017.58
2017-12-03T02:13:30.198Z,1017.61
2017-12-03T02:14:30.208Z,1017.52
2017-12-03T02:15:30.208Z,1017.54
2017-12-03T02:16:30.210Z,1017.49
2017-12-03T02:17:30.213Z,1017.41
2017-12-03T02:18:30.240Z,1017.50
2017-12-03T02:19:30.222Z,1017.49
2017-12-03T02:20:30.228Z,1017.49
2017-12-03T02:21:30.233Z,1017.47
2017-12-03T02:22:30.252Z,1017.49
2017-12-03T02:23:30.240Z,1017.48
2017-12-03T02:25:30.247Z,1017.45
2017-12-03T02:26:30.251Z,1017.41
2017-12-03T02:27:30.250Z,1017.45
2017-12-03T02:28:30.257Z,1017.46
2017-12-03T02:29:30.259Z,1017.46
2017-12-03T02:30:30.265Z,1017.44
2017-12-03T02:31:30.263Z,1017.42
2017-12-03T02:32:30.269Z,1017.41
2017-12-03T02:33:30.272Z,1017.38
2017-12-03T02:34:30.285Z,1017.38
2017-12-03T02:35:30.289Z,1017.37
2017-12-03T02:36:30.286Z,1017.34
2017-12-03T02:37:30.287Z,1017.34
2017-12-03T02:38:30.376Z,1017.29
2017-12-03T02:39:30.298Z,1017.31
2017-12-03T02:40:30.311Z,1017.35
2017-12-03T02:41:30.303Z,1017.33
2017-12-03T02:42:30.313Z,1017.28
2017-12-03T02:43:30.311Z,1017.27
2017-12-03T02:44:30.320Z,1017.31
2017-12-03T02:45:30.322Z,1017.27
2017-12-03T02:46:30.331Z,1017.27
2017-12-03T02:47:30.338Z,1017.21
2017-12-03T02:48:30.346Z,1017.27
2017-12-03T02:49:30.338Z,1017.20
2017-12-03T02:50:30.343Z,1017.25
2017-12-03T02:51:30.349Z,1017.21
2017-12-03T02:52:30.354Z,1017.22
2017-12-03T02:53:30.351Z,1017.22
2017-12-03T02:54:30.365Z,1017.19
2017-12-03T02:55:30.364Z,1017.24
2017-12-03T02:56:30.363Z,1017.21
2017-12-03T02:57:30.364Z,1017.18
2017-12-03T02:58:30.441Z,1017.12
2017-12-03T02:59:30.409Z,1017.16
2017-12-03T03:00:30.373Z,1017.09
2017-12-03T03:01:30.376Z,1017.08
2017-12-03T03:02:30.384Z,1017.08
2017-12-03T03:03:30.384Z,1017.06
2017-12-03T03:04:30.396Z,1017.03
2017-12-03T03:05:30.397Z,1017.03
2017-12-03T03:06:30.402Z,1017.01
2017-12-03T03:07:30.406Z,1017.02
2017-12-03T03:08:30.411Z,1016.95
2017-12-03T03:09:30.459Z,1016.92
2017-12-03T03:10:30.415Z,1016.98
2017-12-03T03:11:30.439Z,1016.89
2017-12-03T03:12:30.421Z,1016.87
2017-12-03T03:13:30.427Z,1016.84
2017-12-03T03:14:30.432Z,1016.83
2017-12-03T03:15:30.429Z,1016.84
2017-12-03T03:16:30.435Z,1016.78
2017-12-03T03:17:30.470Z,1016.82
2017-12-03T03:18:30.440Z,1016.76
2017-12-03T03:19:30.456Z,1016.80
2017-12-03T03:20:30.458Z,1016.78
2017-12-03T03:21:30.458Z,1016.76
2017-12-03T03:22:30.457Z,1016.77
2017-12-03T03:23:30.467Z,1016.76
2017-12-03T03:24:30.467Z,1016.82
2017-12-03T03:25:30.470Z,1016.78
2017-12-03T03:26:30.473Z,1016.73
2017-12-03T03:27:30.483Z,1016.70
2017-12-03T03:28:30.491Z,1016.69
2017-12-03T03:29:30.483Z,1016.67
2017-12-03T03:30:30.494Z,1016.70
2017-12-03T03:31:30.495Z,1016.62
2017-12-03T03:32:30.497Z,1016.50
2017-12-03T03:33:30.495Z,1016.61
2017-12-03T03:34:30.503Z,1016.54
2017-12-03T03:35:30.511Z,1016.59
2017-12-03T03:36:30.520Z,1016.58
2017-12-03T03:37:30.513Z,1016.52
2017-12-03T03:38:30.521Z,1016.49
2017-12-03T03:39:30.523Z,1016.57
2017-12-03T03:40:30.526Z,1016.48
2017-12-03T03:41:30.533Z,1016.55
2017-12-03T03:42:30.534Z,1016.53
2017-12-03T03:43:30.579Z,1016.52
2017-12-03T03:44:30.543Z,1016.52
2017-12-03T03:45:31.268Z,1016.47
2017-12-03T03:46:30.548Z,1016.53
2017-12-03T03:47:30.549Z,1016.48
2017-12-03T03:48:30.558Z,1016.55
2017-12-03T03:49:30.566Z,1016.49
2017-12-03T03:50:30.565Z,1016.49
2017-12-03T03:51:30.571Z,1016.55
2017-12-03T03:52:30.570Z,1016.57
2017-12-03T03:53:30.582Z,1016.53
2017-12-03T03:54:30.583Z,1016.55
2017-12-03T03:55:30.580Z,1016.54
2017-12-03T03:56:30.583Z,1016.50
2017-12-03T03:57:30.582Z,1016.55
2017-12-03T03:58:30.590Z,1016.53
2017-12-03T03:59:30.593Z,1016.55
2017-12-03T04:00:30.599Z,1016.54
2017-12-03T04:01:30.606Z,1016.56
2017-12-03T04:02:30.609Z,1016.57
2017-12-03T04:03:30.609Z,1016.49
2017-12-03T04:04:30.615Z,1016.57
2017-12-03T04:05:30.622Z,1016.54
2017-12-03T04:06:30.628Z,1016.49
2017-12-03T04:07:30.622Z,1016.49
2017-12-03T04:08:30.641Z,1016.49
2017-12-03T04:09:30.630Z,1016.47
2017-12-03T04:10:30.633Z,1016.52
2017-12-03T04:11:30.703Z,1016.50
2017-12-03T04:12:30.642Z,1016.54
2017-12-03T04:13:30.657Z,1016.55
2017-12-03T04:14:30.647Z,1016.56
2017-12-03T04:15:30.650Z,1016.58
2017-12-03T04:16:30.660Z,1016.58
2017-12-03T04:17:30.663Z,1016.58
2017-12-03T04:18:30.670Z,1016.56
2017-12-03T04:19:30.668Z,1016.55
2017-12-03T04:20:30.676Z,1016.53
2017-12-03T04:21:30.680Z,1016.54
2017-12-03T04:22:30.681Z,1016.52
2017-12-03T04:23:30.681Z,1016.50
2017-12-03T04:24:30.689Z,1016.48
2017-12-03T04:25:30.692Z,1016.47
2017-12-03T04:26:30.753Z,1016.49
2017-12-03T04:27:30.699Z,1016.52
2017-12-03T04:28:30.709Z,1016.50
2017-12-03T04:29:30.708Z,1016.51
2017-12-03T04:30:30.772Z,1016.49
2017-12-03T04:31:30.714Z,1016.49
2017-12-03T04:32:30.714Z,1016.45
2017-12-03T04:33:30.722Z,1016.45
2017-12-03T04:34:30.727Z,1016.43
2017-12-03T04:35:30.727Z,1016.45
2017-12-03T04:36:30.743Z,1016.43
2017-12-03T04:37:30.737Z,1016.42
2017-12-03T04:38:30.741Z,1016.40
2017-12-03T04:39:30.740Z,1016.43
2017-12-03T04:40:30.755Z,1016.35
2017-12-03T04:41:30.751Z,1016.34
2017-12-03T04:42:30.758Z,1016.30
2017-12-03T04:43:30.760Z,1016.36
2017-12-03T04:44:30.768Z,1016.41
2017-12-03T04:45:30.766Z,1016.36
2017-12-03T04:46:30.770Z,1016.41
2017-12-03T04:47:30.773Z,1016.43
2017-12-03T04:48:30.785Z,1016.35
2017-12-03T04:49:30.783Z,1016.37
2017-12-03T04:50:30.791Z,1016.39
2017-12-03T04:51:30.789Z,1016.41
2017-12-03T04:52:30.792Z,1016.35
2017-12-03T04:53:30.801Z,1016.35
2017-12-03T04:54:30.850Z,1016.36
2017-12-03T04:55:30.803Z,1016.41
2017-12-03T04:56:30.810Z,1016.32
2017-12-03T04:57:30.813Z,1016.33
2017-12-03T04:58:30.820Z,1016.31
2017-12-03T04:59:30.820Z,1016.29
2017-12-03T05:00:30.820Z,1016.28
2017-12-03T05:01:30.830Z,1016.30
2017-12-03T05:02:30.831Z,1016.26
2017-12-03T05:03:30.836Z,1016.28
2017-12-03T05:04:30.834Z,1016.25
2017-12-03T05:05:30.842Z,1016.27
2017-12-03T05:06:30.843Z,1016.26
2017-12-03T05:07:30.880Z,1016.21
2017-12-03T05:08:30.852Z,1016.24
2017-12-03T05:09:30.858Z,1016.30
2017-12-03T05:10:30.861Z,1016.26
2017-12-03T05:11:30.867Z,1016.30
2017-12-03T05:12:30.875Z,1016.33
2017-12-03T05:13:30.871Z,1016.27
2017-12-03T05:14:30.873Z,1016.31
2017-12-03T05:15:30.875Z,1016.24
2017-12-03T05:16:30.882Z,1016.22
2017-12-03T05:17:30.925Z,1016.28
2017-12-03T05:18:30.888Z,1016.29
2017-12-03T05:19:30.894Z,1016.23
2017-12-03T05:20:30.894Z,1016.19
2017-12-03T05:21:30.901Z,1016.21
2017-12-03T05:22:30.909Z,1016.15
2017-12-03T05:23:30.912Z,1016.19
2017-12-03T05:24:30.911Z,1016.15
2017-12-03T05:25:30.926Z,1016.13
2017-12-03T05:26:30.919Z,1016.12
2017-12-03T05:27:30.929Z,1016.10
2017-12-03T05:28:30.926Z,1016.14
2017-12-03T05:29:30.927Z,1016.13
2017-12-03T05:30:31.765Z,1016.08
2017-12-03T05:31:30.934Z,1016.14
2017-12-03T05:32:30.937Z,1016.15
2017-12-03T05:33:30.948Z,1016.12
2017-12-03T05:34:30.955Z,1016.06
2017-12-03T05:35:30.952Z,1016.12
2017-12-03T05:36:30.951Z,1016.11
2017-12-03T05:37:30.959Z,1016.10
2017-12-03T05:38:30.963Z,1016.07
2017-12-03T05:39:30.968Z,1016.04
2017-12-03T05:40:30.971Z,1016.11
2017-12-03T05:41:30.975Z,1016.10
2017-12-03T05:42:30.979Z,1016.06
2017-12-03T05:43:30.981Z,1016.06
2017-12-03T05:44:30.985Z,1016.06
2017-12-03T05:45:30.990Z,1016.08
2017-12-03T05:46:30.997Z,1016.04
2017-12-03T05:47:30.998Z,1016.03
2017-12-03T05:48:31.000Z,1015.99
2017-12-03T05:49:31.004Z,1016.00
2017-12-03T05:50:31.009Z,1016.03
2017-12-03T05:51:31.013Z,1015.98
2017-12-03T05:52:31.010Z,1016.05
2017-12-03T05:53:31.020Z,1016.03
2017-12-03T05:54:31.020Z,1016.03
2017-12-03T05:55:31.026Z,1016.07
2017-12-03T05:56:31.029Z,1016.03
2017-12-03T05:57:31.038Z,1016.04
2017-12-03T05:58:31.769Z,1016.09
2017-12-03T05:59:31.038Z,1016.04
2017-12-03T06:00:31.041Z,1016.02
2017-12-03T06:01:31.052Z,1016.01
2017-12-03T06:02:31.051Z,1016.00
2017-12-03T06:03:31.084Z,1015.96
2017-12-03T06:04:31.061Z,1015.97
2017-12-03T06:05:31.064Z,1016.01
2017-12-03T06:06:31.070Z,1016.00
2017-12-03T06:07:31.119Z,1016.00
2017-12-03T06:08:31.076Z,1015.94
2017-12-03T06:09:31.073Z,1015.94
2017-12-03T06:10:31.084Z,1015.96
2017-12-03T06:11:31.164Z,1015.94
2017-12-03T06:12:31.087Z,1015.93
2017-12-03T06:13:31.087Z,1015.91
2017-12-03T06:14:31.099Z,1015.94
2017-12-03T06:15:31.100Z,1015.90
2017-12-03T06:16:31.103Z,1015.90
2017-12-03T06:17:31.104Z,1015.90
2017-12-03T06:18:31.109Z,1015.92
2017-12-03T06:19:31.115Z,1015.86
2017-12-03T06:20:31.119Z,1015.93
2017-12-03T06:21:31.119Z,1015.91
2017-12-03T06:22:31.124Z,1015.94
2017-12-03T06:23:31.125Z,1015.93
2017-12-03T06:24:31.135Z,1015.92
2017-12-03T06:25:31.132Z,1015.91
2017-12-03T06:26:31.135Z,1015.92
2017-12-03T06:27:31.141Z,1015.89
2017-12-03T06:28:31.150Z,1015.89
2017-12-03T06:29:31.150Z,1015.90
2017-12-03T06:30:31.157Z,1015.85
2017-12-03T06:31:31.157Z,1015.87
2017-12-03T06:32:31.162Z,1015.87
2017-12-03T06:33:31.167Z,1015.81
2017-12-03T06:34:31.173Z,1015.89
2017-12-03T06:35:31.170Z,1015.87
2017-12-03T06:36:31.175Z,1015.85
2017-12-03T06:37:31.182Z,1015.90
2017-12-03T06:38:31.183Z,1015.83
2017-12-03T06:39:31.186Z,1015.92
2017-12-03T06:40:31.191Z,1015.85
2017-12-03T06:41:33.231Z,1015.88
2017-12-03T06:42:31.250Z,1015.89
2017-12-03T06:43:31.198Z,1015.87
2017-12-03T06:44:31.209Z,1015.90
2017-12-03T06:45:31.206Z,1015.95
2017-12-03T06:46:31.209Z,1015.89
2017-12-03T06:47:31.217Z,1015.89
2017-12-03T06:48:31.218Z,1015.91
2017-12-03T06:49:31.215Z,1015.92
2017-12-03T06:50:31.230Z,1015.95
2017-12-03T06:51:31.225Z,1015.96
2017-12-03T06:52:31.253Z,1015.92
2017-12-03T06:53:31.240Z,1015.85
2017-12-03T06:54:31.243Z,1015.96
2017-12-03T06:55:31.244Z,1015.97
2017-12-03T06:56:31.248Z,1015.98
2017-12-03T06:57:31.257Z,1015.97
2017-12-03T06:58:31.256Z,1015.93
2017-12-03T06:59:31.259Z,1015.94
2017-12-03T07:00:31.263Z,1016.02
2017-12-03T07:01:31.263Z,1016.01
2017-12-03T07:02:31.273Z,1016.00
2017-12-03T07:03:31.280Z,1015.97
2017-12-03T07:04:31.277Z,1016.04
2017-12-03T07:05:31.351Z,1015.98
2017-12-03T07:06:31.284Z,1016.07
2017-12-03T07:07:31.289Z,1015.97
2017-12-03T07:08:31.296Z,1015.99
2017-12-03T07:09:31.298Z,1015.99
2017-12-03T07:10:31.300Z,1016.02
2017-12-03T07:11:31.303Z,1015.97
2017-12-03T07:12:31.313Z,1016.00
2017-12-03T07:13:31.310Z,1016.07
2017-12-03T07:14:31.319Z,1015.99
2017-12-03T07:15:31.314Z,1016.03
2017-12-03T07:16:31.324Z,1016.02
2017-12-03T07:17:31.329Z,1015.96
2017-12-03T07:18:31.327Z,1015.98
2017-12-03T07:19:31.333Z,1015.97
2017-12-03T07:20:31.346Z,1015.99
2017-12-03T07:21:31.339Z,1016.01
2017-12-03T07:22:31.347Z,1016.08
2017-12-03T07:23:31.350Z,1016.05
2017-12-03T07:24:31.352Z,1015.98
2017-12-03T07:25:31.354Z,1015.99
2017-12-03T07:26:31.367Z,1015.97
2017-12-03T07:27:31.361Z,1015.97
2017-12-03T07:28:31.363Z,1015.98
2017-12-03T07:29:31.378Z,1016.07
2017-12-03T07:30:31.371Z,1015.99
2017-12-03T07:31:31.376Z,1016.07
2017-12-03T07:32:31.391Z,1016.01
2017-12-03T07:33:31.384Z,1016.05
2017-12-03T07:34:31.385Z,1016.03
2017-12-03T07:35:31.395Z,1015.88
2017-12-03T07:36:31.394Z,1015.95
2017-12-03T07:37:31.405Z,1015.97
2017-12-03T07:38:31.405Z,1015.95
2017-12-03T07:39:31.403Z,1015.92
2017-12-03T07:40:31.405Z,1015.98
2017-12-03T07:41:31.410Z,1015.97
2017-12-03T07:42:31.417Z,1015.87
2017-12-03T07:43:31.419Z,1015.98
2017-12-03T07:44:31.439Z,1015.90
2017-12-03T07:45:31.435Z,1015.96
2017-12-03T07:46:31.432Z,1015.95
2017-12-03T07:47:31.434Z,1015.95
2017-12-03T07:48:31.434Z,1015.93
2017-12-03T07:49:31.437Z,1015.97
2017-12-03T07:50:31.442Z,1015.99
2017-12-03T07:51:31.447Z,1015.95
2017-12-03T07:52:31.451Z,1015.99
2017-12-03T07:53:31.459Z,1016.00
2017-12-03T07:54:31.459Z,1015.99
2017-12-03T07:55:31.458Z,1015.94
2017-12-03T07:56:32.261Z,1016.03
2017-12-03T07:57:31.469Z,1016.01
2017-12-03T07:58:31.475Z,1016.06
2017-12-03T07:59:31.483Z,1016.05
2017-12-03T08:00:31.526Z,1016.10
2017-12-03T08:01:31.484Z,1016.04
2017-12-03T08:02:31.487Z,1016.11
2017-12-03T08:03:31.492Z,1016.01
2017-12-03T08:04:31.490Z,1016.00
2017-12-03T08:05:31.503Z,1015.99
2017-12-03T08:06:31.508Z,1016.09
2017-12-03T08:07:31.501Z,1016.08
2017-12-03T08:08:31.512Z,1016.07
2017-12-03T08:09:31.606Z,1016.10
2017-12-03T08:10:31.515Z,1016.06
2017-12-03T08:11:31.520Z,1016.07
2017-12-03T08:12:31.527Z,1016.04
2017-12-03T08:13:31.530Z,1016.06
2017-12-03T08:14:31.543Z,1016.14
2017-12-03T08:15:31.577Z,1016.14
2017-12-03T08:16:31.543Z,1016.08
2017-12-03T08:17:31.550Z,1016.08
2017-12-03T08:18:31.547Z,1016.12
2017-12-03T08:20:31.553Z,1016.05
2017-12-03T08:21:31.559Z,1016.14
2017-12-03T08:22:31.561Z,1016.12
2017-12-03T08:25:08.630Z,1016.06
2017-12-03T08:49:35.307Z,1015.97
2017-12-03T08:50:35.315Z,1015.92
2017-12-03T08:51:35.314Z,1015.95
2017-12-03T08:52:35.319Z,1015.91
2017-12-03T08:53:35.322Z,1015.92
2017-12-03T08:54:35.332Z,1015.95
2017-12-03T08:55:35.332Z,1015.95
2017-12-03T08:56:35.341Z,1015.87
2017-12-03T08:57:35.341Z,1015.93
2017-12-03T08:58:35.340Z,1015.92
2017-12-03T08:59:35.353Z,1015.99
2017-12-03T09:00:35.350Z,1015.95
2017-12-03T09:01:35.413Z,1015.91
2017-12-03T09:02:35.363Z,1016.03
2017-12-03T09:03:35.363Z,1015.99
2017-12-03T09:04:35.371Z,1016.04
2017-12-03T09:05:35.366Z,1016.04
2017-12-03T09:06:35.484Z,1016.02
2017-12-03T09:07:35.376Z,1015.98
2017-12-03T09:08:35.380Z,1016.00
2017-12-03T09:09:35.393Z,1015.98
2017-12-03T09:10:35.385Z,1015.98
2017-12-03T09:11:35.456Z,1016.05
2017-12-03T09:12:35.395Z,1016.05
2017-12-03T09:13:35.400Z,1016.05
2017-12-03T09:14:35.407Z,1016.05
2017-12-03T09:15:35.408Z,1016.05
2017-12-03T09:16:35.416Z,1016.00
2017-12-03T09:17:35.414Z,1016.05
2017-12-03T09:18:35.424Z,1016.00
2017-12-03T09:19:35.423Z,1016.00
2017-12-03T09:20:35.428Z,1015.88
2017-12-03T09:21:35.433Z,1015.92
2017-12-03T09:22:35.433Z,1015.91
2017-12-03T09:23:35.446Z,1016.01
2017-12-03T09:24:35.451Z,1015.98
2017-12-03T09:25:35.448Z,1016.04
2017-12-03T09:26:35.460Z,1015.98
2017-12-03T09:27:35.453Z,1015.95
2017-12-03T09:28:35.462Z,1015.94
2017-12-03T09:29:35.467Z,1015.95
2017-12-03T09:30:35.463Z,1015.93
2017-12-03T09:31:35.470Z,1015.92
2017-12-03T09:32:35.467Z,1016.01
2017-12-03T09:33:35.480Z,1016.01
2017-12-03T09:34:35.565Z,1015.98
2017-12-03T09:35:35.481Z,1015.97
2017-12-03T09:36:35.489Z,1015.94
2017-12-03T09:37:35.496Z,1015.99
2017-12-03T09:38:35.499Z,1016.02
2017-12-03T09:39:35.525Z,1015.95
2017-12-03T09:40:35.504Z,1015.97
2017-12-03T09:41:35.513Z,1015.91
2017-12-03T09:42:35.517Z,1016.00
2017-12-03T09:43:35.514Z,1015.94
2017-12-03T09:44:35.521Z,1015.93
2017-12-03T09:45:35.549Z,1015.89
2017-12-03T09:46:35.528Z,1015.94
2017-12-03T09:47:35.577Z,1015.86
2017-12-03T09:48:35.532Z,1015.98
2017-12-03T09:49:35.540Z,1015.95
2017-12-03T09:50:35.544Z,1016.01
2017-12-03T09:51:35.541Z,1016.00
2017-12-03T09:52:35.555Z,1015.98
2017-12-03T09:53:35.563Z,1016.04
2017-12-03T09:54:35.559Z,1015.96
2017-12-03T09:55:35.564Z,1016.01
2017-12-03T09:56:35.560Z,1015.97
2017-12-03T09:57:35.567Z,1015.98
2017-12-03T09:58:35.574Z,1016.00
2017-12-03T09:59:35.584Z,1016.01
2017-12-03T10:00:35.588Z,1015.92
2017-12-03T10:01:35.581Z,1016.05
2017-12-03T10:02:35.587Z,1016.01
2017-12-03T10:03:35.592Z,1016.04
2017-12-03T10:04:35.597Z,1016.05
2017-12-03T10:05:35.599Z,1016.05
2017-12-03T10:06:35.610Z,1016.05
2017-12-03T10:07:35.609Z,1016.06
2017-12-03T10:08:35.611Z,1016.05
2017-12-03T10:09:35.609Z,1016.01
2017-12-03T10:10:35.621Z,1016.06
2017-12-03T10:11:35.621Z,1016.06
2017-12-03T10:12:35.623Z,1016.05
2017-12-03T10:13:35.632Z,1016.04
2017-12-03T10:14:35.636Z,1016.01
2017-12-03T10:15:35.645Z,1016.06
2017-12-03T10:16:35.640Z,1016.09
2017-12-03T10:17:35.643Z,1016.02
2017-12-03T10:18:35.649Z,1016.09
2017-12-03T10:19:35.671Z,1016.04
2017-12-03T10:20:35.660Z,1016.07
2017-12-03T10:21:35.661Z,1016.03
2017-12-03T10:22:35.663Z,1016.05
2017-12-03T10:23:35.675Z,1016.02
2017-12-03T10:24:35.678Z,1016.11
2017-12-03T10:25:35.673Z,1015.94
2017-12-03T10:26:35.696Z,1016.03
2017-12-03T10:27:35.691Z,1016.06
2017-12-03T10:28:35.697Z,1016.00
2017-12-03T10:29:35.703Z,1015.99
2017-12-03T10:30:35.694Z,1015.93
2017-12-03T10:31:35.706Z,1015.93
2017-12-03T10:32:35.707Z,1015.93
2017-12-03T10:33:35.724Z,1015.86
2017-12-03T10:34:35.720Z,1015.89
2017-12-03T10:35:35.728Z,1015.90
2017-12-03T10:36:35.724Z,1015.91
2017-12-03T10:37:35.722Z,1015.88
2017-12-03T10:38:35.745Z,1015.88
2017-12-03T10:39:35.727Z,1015.88
2017-12-03T10:40:35.735Z,1015.86
2017-12-03T10:41:35.748Z,1015.79
2017-12-03T10:42:35.759Z,1015.81
2017-12-03T10:43:35.752Z,1015.84
2017-12-03T10:44:35.753Z,1015.80
2017-12-03T10:45:35.766Z,1015.83
2017-12-03T10:46:35.765Z,1015.82
2017-12-03T10:47:35.783Z,1015.85
2017-12-03T10:48:35.771Z,1015.78
2017-12-03T10:49:35.776Z,1015.77
2017-12-03T10:50:35.779Z,1015.78
2017-12-03T10:51:35.791Z,1015.80
2017-12-03T10:52:35.792Z,1015.75
2017-12-03T10:53:35.793Z,1015.75
2017-12-03T10:54:35.798Z,1015.78
2017-12-03T10:55:35.804Z,1015.67
2017-12-03T10:56:35.812Z,1015.74
2017-12-03T10:57:35.807Z,1015.73
2017-12-03T10:58:35.820Z,1015.81
2017-12-03T10:59:35.815Z,1015.72
2017-12-03T11:00:35.820Z,1015.76
2017-12-03T11:01:35.822Z,1015.68
2017-12-03T11:02:35.829Z,1015.69
2017-12-03T11:03:35.832Z,1015.64
2017-12-03T11:04:35.838Z,1015.65
2017-12-03T11:05:35.842Z,1015.67
2017-12-03T11:06:35.844Z,1015.63
2017-12-03T11:07:35.850Z,1015.65
2017-12-03T11:09:35.934Z,1015.69
2017-12-03T11:10:35.858Z,1015.48
2017-12-03T11:11:35.888Z,1015.51
2017-12-03T11:12:35.873Z,1015.45
2017-12-03T11:13:35.873Z,1015.42
2017-12-03T11:14:35.874Z,1015.47
2017-12-03T11:15:35.880Z,1015.44
2017-12-03T11:16:35.883Z,1015.43
2017-12-03T11:17:35.887Z,1015.47
2017-12-03T11:18:35.893Z,1015.41
2017-12-03T11:19:35.901Z,1015.40
2017-12-03T11:20:35.897Z,1015.37
2017-12-03T11:21:35.910Z,1015.47
2017-12-03T11:22:35.919Z,1015.40
2017-12-03T11:23:35.915Z,1015.46
2017-12-03T11:24:35.915Z,1015.44
2017-12-03T11:25:35.916Z,1015.46
2017-12-03T11:26:35.924Z,1015.43
2017-12-03T11:27:35.942Z,1015.43
2017-12-03T11:28:35.937Z,1015.30
2017-12-03T11:29:35.942Z,1015.40
2017-12-03T11:30:35.943Z,1015.35
2017-12-03T11:31:35.948Z,1015.29
2017-12-03T11:32:36.081Z,1015.31
2017-12-03T11:33:35.962Z,1015.25
2017-12-03T11:34:35.967Z,1015.36
2017-12-03T11:35:35.966Z,1015.33
2017-12-03T11:36:35.969Z,1015.52
2017-12-03T11:37:35.980Z,1015.32
2017-12-03T11:38:35.976Z,1015.30
2017-12-03T11:39:35.987Z,1015.41
2017-12-03T11:40:35.986Z,1015.24
2017-12-03T11:41:35.986Z,1015.41
2017-12-03T11:42:35.989Z,1015.32
2017-12-03T11:43:35.993Z,1015.42
2017-12-03T11:44:36.005Z,1015.27
2017-12-03T11:45:36.004Z,1015.30
2017-12-03T11:46:36.003Z,1015.37
2017-12-03T11:47:36.015Z,1015.31
2017-12-03T11:48:36.028Z,1015.26
2017-12-03T11:49:36.016Z,1015.25
2017-12-03T11:50:36.119Z,1015.30
2017-12-03T11:51:36.020Z,1015.30
2017-12-03T11:52:36.047Z,1015.23
2017-12-03T11:53:36.031Z,1015.20
2017-12-03T11:54:36.041Z,1015.25
2017-12-03T11:55:36.041Z,1015.26
2017-12-03T11:56:36.049Z,1015.22
2017-12-03T11:57:36.059Z,1015.15
2017-12-03T11:58:36.052Z,1015.16
2017-12-03T11:59:36.071Z,1015.12
2017-12-03T12:00:36.062Z,1015.16
2017-12-03T12:01:36.069Z,1015.21
2017-12-03T12:02:36.073Z,1015.19
2017-12-03T12:03:36.157Z,1015.08
2017-12-03T12:04:36.078Z,1015.16
2017-12-03T12:05:36.081Z,1015.10
2017-12-03T12:06:36.092Z,1015.08
2017-12-03T12:07:36.086Z,1015.06
2017-12-03T12:08:36.094Z,1014.99
2017-12-03T12:09:36.136Z,1015.04
2017-12-03T12:10:36.131Z,1014.96
2017-12-03T12:11:36.107Z,1014.96
2017-12-03T12:12:36.111Z,1014.94
2017-12-03T12:13:36.108Z,1014.91
2017-12-03T12:14:36.116Z,1014.87
2017-12-03T12:15:36.122Z,1014.86
2017-12-03T12:16:36.124Z,1014.81
2017-12-03T12:17:36.129Z,1014.87
2017-12-03T12:18:36.137Z,1014.82
2017-12-03T12:19:36.141Z,1014.83
2017-12-03T12:20:36.139Z,1014.77
2017-12-03T12:21:36.141Z,1014.82
2017-12-03T12:22:36.146Z,1014.85
2017-12-03T12:23:36.153Z,1014.80
2017-12-03T12:24:36.160Z,1014.84
2017-12-03T12:25:36.162Z,1014.84
2017-12-03T12:26:36.759Z,1014.72
2017-12-03T12:27:36.167Z,1014.75
2017-12-03T12:28:36.177Z,1014.79
2017-12-03T12:29:36.182Z,1014.79
2017-12-03T12:30:36.181Z,1014.77
2017-12-03T12:31:36.189Z,1014.76
2017-12-03T12:32:36.191Z,1014.75
2017-12-03T12:33:36.197Z,1014.75